sensor_id;sensor_type;location;lat;lon;timestamp;temperature;humidity
43320;DHT22;28914;48.722;9.332;2023-08-30T00:01:44;17.00;88.90
43320;DHT22;28914;48.722;9.332;2023-08-30T00:07:03;17.00;89.00
43320;DHT22;28914;48.722;9.332;2023-08-30T00:12:22;17.00;89.00
43320;DHT22;28914;48.722;9.332;2023-08-30T00:17:41;17.00;89.10
43320;DHT22;28914;48.722;9.332;2023-08-30T00:23:00;17.00;89.10
43320;DHT22;28914;48.722;9.332;2023-08-30T00:28:19;17.00;89.20
43320;DHT22;28914;48.722;9.332;2023-08-30T00:33:39;17.00;89.20
43320;DHT22;28914;48.722;9.332;2023-08-30T00:38:58;17.00;89.20
43320;DHT22;28914;48.722;9.332;2023-08-30T00:44:17;17.00;89.20
43320;DHT22;28914;48.722;9.332;2023-08-30T00:49:36;17.00;89.30
43320;DHT22;28914;48.722;9.332;2023-08-30T00:54:56;17.00;89.40
43320;DHT22;28914;48.722;9.332;2023-08-30T01:00:15;16.90;89.20
43320;DHT22;28914;48.722;9.332;2023-08-30T01:05:34;16.90;89.20
43320;DHT22;28914;48.722;9.332;2023-08-30T01:11:02;16.80;89.10
43320;DHT22;28914;48.722;9.332;2023-08-30T01:16:23;16.80;90.00
43320;DHT22;28914;48.722;9.332;2023-08-30T01:22:01;16.70;89.90
43320;DHT22;28914;48.722;9.332;2023-08-30T01:27:24;16.70;89.40
43320;DHT22;28914;48.722;9.332;2023-08-30T01:32:44;16.60;89.30
43320;DHT22;28914;48.722;9.332;2023-08-30T01:38:06;16.50;89.40
43320;DHT22;28914;48.722;9.332;2023-08-30T01:43:27;16.50;89.60
43320;DHT22;28914;48.722;9.332;2023-08-30T01:48:50;16.40;89.50
43320;DHT22;28914;48.722;9.332;2023-08-30T01:54:13;16.30;89.60
43320;DHT22;28914;48.722;9.332;2023-08-30T01:59:36;16.30;89.70
43320;DHT22;28914;48.722;9.332;2023-08-30T02:04:55;16.30;89.70
43320;DHT22;28914;48.722;9.332;2023-08-30T02:10:21;16.20;89.60
43320;DHT22;28914;48.722;9.332;2023-08-30T02:15:41;16.20;89.70
43320;DHT22;28914;48.722;9.332;2023-08-30T02:21:02;16.20;90.00
43320;DHT22;28914;48.722;9.332;2023-08-30T02:26:21;16.10;90.00
43320;DHT22;28914;48.722;9.332;2023-08-30T02:31:40;16.10;90.00
43320;DHT22;28914;48.722;9.332;2023-08-30T02:37:00;16.10;90.10
43320;DHT22;28914;48.722;9.332;2023-08-30T02:42:19;16.10;90.30
43320;DHT22;28914;48.722;9.332;2023-08-30T02:47:38;16.10;90.40
43320;DHT22;28914;48.722;9.332;2023-08-30T02:52:57;16.10;90.40
43320;DHT22;28914;48.722;9.332;2023-08-30T02:58:16;16.10;90.60
43320;DHT22;28914;48.722;9.332;2023-08-30T03:03:35;16.20;90.60
43320;DHT22;28914;48.722;9.332;2023-08-30T03:08:55;16.20;90.60
43320;DHT22;28914;48.722;9.332;2023-08-30T03:14:14;16.20;90.70
43320;DHT22;28914;48.722;9.332;2023-08-30T03:19:35;16.20;90.70
43320;DHT22;28914;48.722;9.332;2023-08-30T03:24:54;16.30;90.70
43320;DHT22;28914;48.722;9.332;2023-08-30T03:30:14;16.40;90.70
43320;DHT22;28914;48.722;9.332;2023-08-30T03:35:34;16.40;90.60
43320;DHT22;28914;48.722;9.332;2023-08-30T03:40:54;16.40;90.60
43320;DHT22;28914;48.722;9.332;2023-08-30T03:46:13;16.40;90.50
43320;DHT22;28914;48.722;9.332;2023-08-30T03:51:32;16.40;90.50
43320;DHT22;28914;48.722;9.332;2023-08-30T03:56:51;16.40;90.30
43320;DHT22;28914;48.722;9.332;2023-08-30T04:02:10;16.40;90.30
43320;DHT22;28914;48.722;9.332;2023-08-30T04:07:30;16.30;90.30
43320;DHT22;28914;48.722;9.332;2023-08-30T04:12:49;16.30;90.40
43320;DHT22;28914;48.722;9.332;2023-08-30T04:18:08;16.30;90.50
43320;DHT22;28914;48.722;9.332;2023-08-30T04:23:30;16.30;90.60
43320;DHT22;28914;48.722;9.332;2023-08-30T04:28:49;16.30;90.60
43320;DHT22;28914;48.722;9.332;2023-08-30T04:34:08;16.30;90.50
43320;DHT22;28914;48.722;9.332;2023-08-30T04:39:28;16.30;90.90
43320;DHT22;28914;48.722;9.332;2023-08-30T04:44:47;16.30;90.60
43320;DHT22;28914;48.722;9.332;2023-08-30T04:50:06;16.30;90.60
43320;DHT22;28914;48.722;9.332;2023-08-30T04:55:28;16.40;90.70
43320;DHT22;28914;48.722;9.332;2023-08-30T05:00:47;16.40;90.70
43320;DHT22;28914;48.722;9.332;2023-08-30T05:06:07;16.40;90.80
43320;DHT22;28914;48.722;9.332;2023-08-30T05:11:26;16.50;90.80
43320;DHT22;28914;48.722;9.332;2023-08-30T05:16:45;16.50;90.90
43320;DHT22;28914;48.722;9.332;2023-08-30T05:22:04;16.50;91.00
43320;DHT22;28914;48.722;9.332;2023-08-30T05:27:24;16.60;91.10
43320;DHT22;28914;48.722;9.332;2023-08-30T05:32:43;16.70;91.10
43320;DHT22;28914;48.722;9.332;2023-08-30T05:38:02;16.80;91.10
43320;DHT22;28914;48.722;9.332;2023-08-30T05:43:21;16.80;91.10
43320;DHT22;28914;48.722;9.332;2023-08-30T05:48:41;16.90;91.10
43320;DHT22;28914;48.722;9.332;2023-08-30T05:54:00;17.00;91.10
43320;DHT22;28914;48.722;9.332;2023-08-30T05:59:19;17.10;91.10
43320;DHT22;28914;48.722;9.332;2023-08-30T06:04:39;17.20;91.00
43320;DHT22;28914;48.722;9.332;2023-08-30T06:09:58;17.30;91.00
43320;DHT22;28914;48.722;9.332;2023-08-30T06:15:18;17.40;90.90
43320;DHT22;28914;48.722;9.332;2023-08-30T06:20:40;17.50;91.00
43320;DHT22;28914;48.722;9.332;2023-08-30T06:26:00;17.60;91.10
43320;DHT22;28914;48.722;9.332;2023-08-30T06:31:19;17.70;91.00
43320;DHT22;28914;48.722;9.332;2023-08-30T06:36:38;17.80;90.90
43320;DHT22;28914;48.722;9.332;2023-08-30T06:41:58;17.90;90.80
43320;DHT22;28914;48.722;9.332;2023-08-30T06:47:17;17.90;90.40
43320;DHT22;28914;48.722;9.332;2023-08-30T06:52:36;18.00;90.10
43320;DHT22;28914;48.722;9.332;2023-08-30T06:57:56;18.00;90.00
43320;DHT22;28914;48.722;9.332;2023-08-30T07:03:15;18.10;90.10
43320;DHT22;28914;48.722;9.332;2023-08-30T07:08:34;18.10;90.10
43320;DHT22;28914;48.722;9.332;2023-08-30T07:13:53;18.20;90.20
43320;DHT22;28914;48.722;9.332;2023-08-30T07:19:12;18.30;90.10
43320;DHT22;28914;48.722;9.332;2023-08-30T07:24:32;18.40;90.10
43320;DHT22;28914;48.722;9.332;2023-08-30T07:29:51;18.50;89.60
43320;DHT22;28914;48.722;9.332;2023-08-30T07:35:10;18.70;88.30
43320;DHT22;28914;48.722;9.332;2023-08-30T07:40:29;18.70;87.60
43320;DHT22;28914;48.722;9.332;2023-08-30T07:45:49;18.70;87.60
43320;DHT22;28914;48.722;9.332;2023-08-30T07:51:08;18.80;87.60
43320;DHT22;28914;48.722;9.332;2023-08-30T07:56:28;18.80;87.30
43320;DHT22;28914;48.722;9.332;2023-08-30T08:01:48;18.90;87.10
43320;DHT22;28914;48.722;9.332;2023-08-30T08:07:07;19.10;87.50
43320;DHT22;28914;48.722;9.332;2023-08-30T08:12:26;19.30;87.70
43320;DHT22;28914;48.722;9.332;2023-08-30T08:17:46;19.40;86.80
43320;DHT22;28914;48.722;9.332;2023-08-30T08:23:05;19.50;86.50
43320;DHT22;28914;48.722;9.332;2023-08-30T08:28:24;19.60;85.80
43320;DHT22;28914;48.722;9.332;2023-08-30T08:33:44;19.70;85.80
43320;DHT22;28914;48.722;9.332;2023-08-30T08:39:03;19.80;86.00
43320;DHT22;28914;48.722;9.332;2023-08-30T08:44:26;20.00;85.50
43320;DHT22;28914;48.722;9.332;2023-08-30T08:49:51;20.20;84.20
43320;DHT22;28914;48.722;9.332;2023-08-30T08:55:10;20.30;84.90
43320;DHT22;28914;48.722;9.332;2023-08-30T09:00:30;20.60;85.10
43320;DHT22;28914;48.722;9.332;2023-08-30T09:05:51;20.80;84.10
43320;DHT22;28914;48.722;9.332;2023-08-30T09:11:10;21.10;83.80
43320;DHT22;28914;48.722;9.332;2023-08-30T09:16:30;21.50;83.30
43320;DHT22;28914;48.722;9.332;2023-08-30T09:21:56;21.80;79.80
43320;DHT22;28914;48.722;9.332;2023-08-30T09:27:16;22.00;78.00
43320;DHT22;28914;48.722;9.332;2023-08-30T09:32:40;22.30;78.70
43320;DHT22;28914;48.722;9.332;2023-08-30T09:38:00;22.90;82.00
43320;DHT22;28914;48.722;9.332;2023-08-30T09:43:20;23.90;79.20
43320;DHT22;28914;48.722;9.332;2023-08-30T09:48:44;25.00;76.70
43320;DHT22;28914;48.722;9.332;2023-08-30T09:54:04;26.40;78.20
43320;DHT22;28914;48.722;9.332;2023-08-30T09:59:24;27.40;72.40
43320;DHT22;28914;48.722;9.332;2023-08-30T10:04:44;27.90;69.80
43320;DHT22;28914;48.722;9.332;2023-08-30T10:10:04;28.60;66.50
43320;DHT22;28914;48.722;9.332;2023-08-30T10:15:25;28.90;62.50
43320;DHT22;28914;48.722;9.332;2023-08-30T10:20:45;28.90;64.60
43320;DHT22;28914;48.722;9.332;2023-08-30T10:26:05;29.40;60.90
43320;DHT22;28914;48.722;9.332;2023-08-30T10:31:27;30.30;60.20
43320;DHT22;28914;48.722;9.332;2023-08-30T10:36:56;31.30;57.70
43320;DHT22;28914;48.722;9.332;2023-08-30T10:42:22;32.40;53.40
43320;DHT22;28914;48.722;9.332;2023-08-30T10:47:42;33.40;56.70
43320;DHT22;28914;48.722;9.332;2023-08-30T10:53:01;34.30;53.80
43320;DHT22;28914;48.722;9.332;2023-08-30T10:58:20;35.10;51.70
43320;DHT22;28914;48.722;9.332;2023-08-30T11:03:41;35.80;45.40
43320;DHT22;28914;48.722;9.332;2023-08-30T11:09:01;36.10;46.40
43320;DHT22;28914;48.722;9.332;2023-08-30T11:14:20;36.20;48.20
43320;DHT22;28914;48.722;9.332;2023-08-30T11:19:39;36.40;47.90
43320;DHT22;28914;48.722;9.332;2023-08-30T11:24:58;36.80;47.00
43320;DHT22;28914;48.722;9.332;2023-08-30T11:30:17;37.00;47.10
43320;DHT22;28914;48.722;9.332;2023-08-30T11:35:40;36.90;43.70
43320;DHT22;28914;48.722;9.332;2023-08-30T11:40:59;36.50;43.50
43320;DHT22;28914;48.722;9.332;2023-08-30T11:46:18;36.20;42.70
43320;DHT22;28914;48.722;9.332;2023-08-30T11:51:38;35.60;44.30
43320;DHT22;28914;48.722;9.332;2023-08-30T11:56:58;34.80;42.80
43320;DHT22;28914;48.722;9.332;2023-08-30T12:02:17;33.90;40.90
43320;DHT22;28914;48.722;9.332;2023-08-30T12:07:37;32.70;41.60
43320;DHT22;28914;48.722;9.332;2023-08-30T12:12:57;31.50;43.70
43320;DHT22;28914;48.722;9.332;2023-08-30T12:18:16;30.70;45.60
43320;DHT22;28914;48.722;9.332;2023-08-30T12:23:36;30.10;45.80
43320;DHT22;28914;48.722;9.332;2023-08-30T12:28:55;29.50;46.60
43320;DHT22;28914;48.722;9.332;2023-08-30T12:34:14;29.00;47.90
43320;DHT22;28914;48.722;9.332;2023-08-30T12:39:34;28.30;48.20
43320;DHT22;28914;48.722;9.332;2023-08-30T12:44:53;27.50;49.60
43320;DHT22;28914;48.722;9.332;2023-08-30T12:50:12;26.60;51.60
43320;DHT22;28914;48.722;9.332;2023-08-30T12:55:31;25.80;53.30
43320;DHT22;28914;48.722;9.332;2023-08-30T13:00:51;25.10;54.50
43320;DHT22;28914;48.722;9.332;2023-08-30T13:06:10;24.50;55.80
43320;DHT22;28914;48.722;9.332;2023-08-30T13:11:29;24.00;56.70
43320;DHT22;28914;48.722;9.332;2023-08-30T13:16:51;23.70;57.60
43320;DHT22;28914;48.722;9.332;2023-08-30T13:22:10;23.40;59.00
43320;DHT22;28914;48.722;9.332;2023-08-30T13:27:30;23.30;59.80
43320;DHT22;28914;48.722;9.332;2023-08-30T13:32:49;23.10;59.70
43320;DHT22;28914;48.722;9.332;2023-08-30T13:38:08;23.00;60.20
43320;DHT22;28914;48.722;9.332;2023-08-30T13:43:27;22.90;60.80
43320;DHT22;28914;48.722;9.332;2023-08-30T13:48:47;22.80;61.80
43320;DHT22;28914;48.722;9.332;2023-08-30T13:54:07;22.80;62.90
43320;DHT22;28914;48.722;9.332;2023-08-30T13:59:26;22.70;63.10
43320;DHT22;28914;48.722;9.332;2023-08-30T14:04:47;22.70;63.30
43320;DHT22;28914;48.722;9.332;2023-08-30T14:10:07;22.70;62.70
43320;DHT22;28914;48.722;9.332;2023-08-30T14:15:26;22.70;63.30
43320;DHT22;28914;48.722;9.332;2023-08-30T14:20:46;22.70;62.80
43320;DHT22;28914;48.722;9.332;2023-08-30T14:26:06;22.70;63.10
43320;DHT22;28914;48.722;9.332;2023-08-30T14:31:29;22.90;63.30
43320;DHT22;28914;48.722;9.332;2023-08-30T14:36:49;23.00;63.20
43320;DHT22;28914;48.722;9.332;2023-08-30T14:42:09;23.30;62.60
43320;DHT22;28914;48.722;9.332;2023-08-30T14:47:29;23.60;61.60
43320;DHT22;28914;48.722;9.332;2023-08-30T14:52:50;23.70;61.40
43320;DHT22;28914;48.722;9.332;2023-08-30T14:58:10;23.70;61.70
43320;DHT22;28914;48.722;9.332;2023-08-30T15:03:29;23.70;63.00
43320;DHT22;28914;48.722;9.332;2023-08-30T15:08:48;23.80;64.00
43320;DHT22;28914;48.722;9.332;2023-08-30T15:14:08;23.70;63.60
43320;DHT22;28914;48.722;9.332;2023-08-30T15:19:27;23.80;63.80
43320;DHT22;28914;48.722;9.332;2023-08-30T15:24:46;23.80;63.50
43320;DHT22;28914;48.722;9.332;2023-08-30T15:30:06;23.80;62.80
43320;DHT22;28914;48.722;9.332;2023-08-30T15:35:26;23.80;62.10
43320;DHT22;28914;48.722;9.332;2023-08-30T15:40:45;23.70;62.90
43320;DHT22;28914;48.722;9.332;2023-08-30T15:46:06;23.60;64.00
43320;DHT22;28914;48.722;9.332;2023-08-30T15:51:25;23.60;64.30
43320;DHT22;28914;48.722;9.332;2023-08-30T15:56:45;23.60;64.50
43320;DHT22;28914;48.722;9.332;2023-08-30T16:02:05;23.60;64.90
43320;DHT22;28914;48.722;9.332;2023-08-30T16:07:24;23.60;64.80
43320;DHT22;28914;48.722;9.332;2023-08-30T16:12:43;23.50;65.00
43320;DHT22;28914;48.722;9.332;2023-08-30T16:18:03;23.50;65.60
43320;DHT22;28914;48.722;9.332;2023-08-30T16:23:22;23.50;65.40
43320;DHT22;28914;48.722;9.332;2023-08-30T16:28:41;23.40;65.00
43320;DHT22;28914;48.722;9.332;2023-08-30T16:34:00;23.50;64.80
43320;DHT22;28914;48.722;9.332;2023-08-30T16:39:19;23.50;65.20
43320;DHT22;28914;48.722;9.332;2023-08-30T16:44:39;23.40;65.70
43320;DHT22;28914;48.722;9.332;2023-08-30T16:49:58;23.40;66.80
43320;DHT22;28914;48.722;9.332;2023-08-30T16:55:17;23.40;66.60
43320;DHT22;28914;48.722;9.332;2023-08-30T17:00:38;23.30;67.00
43320;DHT22;28914;48.722;9.332;2023-08-30T17:05:59;23.20;66.20
43320;DHT22;28914;48.722;9.332;2023-08-30T17:11:21;22.90;66.20
43320;DHT22;28914;48.722;9.332;2023-08-30T17:16:40;22.70;66.40
43320;DHT22;28914;48.722;9.332;2023-08-30T17:21:59;22.50;67.00
43320;DHT22;28914;48.722;9.332;2023-08-30T17:27:19;22.30;67.50
43320;DHT22;28914;48.722;9.332;2023-08-30T17:32:38;22.10;69.00
43320;DHT22;28914;48.722;9.332;2023-08-30T17:37:57;21.90;68.60
43320;DHT22;28914;48.722;9.332;2023-08-30T17:43:16;21.60;68.90
43320;DHT22;28914;48.722;9.332;2023-08-30T17:48:35;21.40;69.60
43320;DHT22;28914;48.722;9.332;2023-08-30T17:53:54;21.20;70.20
43320;DHT22;28914;48.722;9.332;2023-08-30T17:59:13;20.90;70.90
43320;DHT22;28914;48.722;9.332;2023-08-30T18:04:35;20.70;71.40
43320;DHT22;28914;48.722;9.332;2023-08-30T18:09:54;20.50;71.40
43320;DHT22;28914;48.722;9.332;2023-08-30T18:15:13;20.30;71.70
43320;DHT22;28914;48.722;9.332;2023-08-30T18:20:33;20.00;71.70
43320;DHT22;28914;48.722;9.332;2023-08-30T18:25:52;19.90;72.10
43320;DHT22;28914;48.722;9.332;2023-08-30T18:31:12;19.70;72.50
43320;DHT22;28914;48.722;9.332;2023-08-30T18:36:33;19.50;73.10
43320;DHT22;28914;48.722;9.332;2023-08-30T18:41:53;19.30;73.60
43320;DHT22;28914;48.722;9.332;2023-08-30T18:47:13;19.20;74.00
43320;DHT22;28914;48.722;9.332;2023-08-30T18:52:36;19.10;74.40
43320;DHT22;28914;48.722;9.332;2023-08-30T18:57:55;18.90;74.30
43320;DHT22;28914;48.722;9.332;2023-08-30T19:03:14;18.80;74.60
43320;DHT22;28914;48.722;9.332;2023-08-30T19:08:34;18.60;75.00
43320;DHT22;28914;48.722;9.332;2023-08-30T19:13:54;18.50;75.60
43320;DHT22;28914;48.722;9.332;2023-08-30T19:19:13;18.40;75.60
43320;DHT22;28914;48.722;9.332;2023-08-30T19:24:33;18.30;76.00
43320;DHT22;28914;48.722;9.332;2023-08-30T19:29:55;18.20;76.20
43320;DHT22;28914;48.722;9.332;2023-08-30T19:35:15;18.10;76.60
43320;DHT22;28914;48.722;9.332;2023-08-30T19:40:34;18.10;76.70
43320;DHT22;28914;48.722;9.332;2023-08-30T19:46:01;18.00;77.60
43320;DHT22;28914;48.722;9.332;2023-08-30T19:51:20;18.00;77.60
43320;DHT22;28914;48.722;9.332;2023-08-30T19:56:42;18.00;78.00
43320;DHT22;28914;48.722;9.332;2023-08-30T20:02:02;18.00;78.20
43320;DHT22;28914;48.722;9.332;2023-08-30T20:07:21;18.10;78.50
43320;DHT22;28914;48.722;9.332;2023-08-30T20:12:41;18.20;80.00
43320;DHT22;28914;48.722;9.332;2023-08-30T20:18:00;18.20;80.10
43320;DHT22;28914;48.722;9.332;2023-08-30T20:23:19;18.30;79.70
43320;DHT22;28914;48.722;9.332;2023-08-30T20:28:38;18.40;79.60
43320;DHT22;28914;48.722;9.332;2023-08-30T20:33:58;18.50;79.80
43320;DHT22;28914;48.722;9.332;2023-08-30T20:39:17;18.60;80.00
43320;DHT22;28914;48.722;9.332;2023-08-30T20:44:36;18.60;79.70
43320;DHT22;28914;48.722;9.332;2023-08-30T20:49:55;18.70;79.60
43320;DHT22;28914;48.722;9.332;2023-08-30T20:55:14;18.80;79.50
43320;DHT22;28914;48.722;9.332;2023-08-30T21:00:34;18.80;79.30
43320;DHT22;28914;48.722;9.332;2023-08-30T21:05:53;18.90;79.30
43320;DHT22;28914;48.722;9.332;2023-08-30T21:11:12;18.90;79.40
43320;DHT22;28914;48.722;9.332;2023-08-30T21:16:31;18.90;79.60
43320;DHT22;28914;48.722;9.332;2023-08-30T21:21:50;18.90;79.50
43320;DHT22;28914;48.722;9.332;2023-08-30T21:27:10;18.90;79.50
43320;DHT22;28914;48.722;9.332;2023-08-30T21:32:29;19.00;79.70
43320;DHT22;28914;48.722;9.332;2023-08-30T21:37:49;19.00;80.00
43320;DHT22;28914;48.722;9.332;2023-08-30T21:43:09;19.00;80.10
43320;DHT22;28914;48.722;9.332;2023-08-30T21:48:29;19.00;80.20
43320;DHT22;28914;48.722;9.332;2023-08-30T21:53:48;19.00;80.20
43320;DHT22;28914;48.722;9.332;2023-08-30T21:59:08;19.00;80.40
43320;DHT22;28914;48.722;9.332;2023-08-30T22:04:27;19.00;80.40
43320;DHT22;28914;48.722;9.332;2023-08-30T22:09:46;19.00;80.60
43320;DHT22;28914;48.722;9.332;2023-08-30T22:15:06;19.00;81.40
43320;DHT22;28914;48.722;9.332;2023-08-30T22:20:30;19.00;81.20
43320;DHT22;28914;48.722;9.332;2023-08-30T22:25:49;18.90;81.30
43320;DHT22;28914;48.722;9.332;2023-08-30T22:31:09;18.90;81.30
43320;DHT22;28914;48.722;9.332;2023-08-30T22:36:28;18.80;81.20
43320;DHT22;28914;48.722;9.332;2023-08-30T22:41:47;18.80;81.30
43320;DHT22;28914;48.722;9.332;2023-08-30T22:47:07;18.80;81.60
43320;DHT22;28914;48.722;9.332;2023-08-30T22:52:26;18.70;81.80
43320;DHT22;28914;48.722;9.332;2023-08-30T22:57:45;18.70;82.10
43320;DHT22;28914;48.722;9.332;2023-08-30T23:03:05;18.60;82.00
43320;DHT22;28914;48.722;9.332;2023-08-30T23:08:26;18.60;81.80
43320;DHT22;28914;48.722;9.332;2023-08-30T23:13:46;18.60;82.00
43320;DHT22;28914;48.722;9.332;2023-08-30T23:19:05;18.50;82.00
43320;DHT22;28914;48.722;9.332;2023-08-30T23:24:24;18.50;82.00
43320;DHT22;28914;48.722;9.332;2023-08-30T23:29:43;18.50;82.10
43320;DHT22;28914;48.722;9.332;2023-08-30T23:35:03;18.40;82.20
43320;DHT22;28914;48.722;9.332;2023-08-30T23:40:23;18.40;82.20
43320;DHT22;28914;48.722;9.332;2023-08-30T23:45:43;18.30;82.20
43320;DHT22;28914;48.722;9.332;2023-08-30T23:51:03;18.30;82.50
43320;DHT22;28914;48.722;9.332;2023-08-30T23:56:23;18.30;82.60
